Terminal Aerodrome Forecast
Issued by NWS

Home | Current Version | Previous Version | Text Only | Print | Product List | Glossary On
Versions: 1 2 3 4 5 6 7 8 9 10 11 12 13 14 15
000
FTUS44 KLZK 292300
TAFADF
TAF
KADF 292332Z 3000/3024 VRB03KT P6SM SCT060
     FM301200 12004KT P6SM VCSH SCT080 OVC120 PROB30 3015/3018 -RA
     FM301800 17005KT P6SM VCSH OVC050 PROB30 3018/3024 5SM -RA BR
      OVC030=

USA.gov is the U.S. government's official web portal to all federal, state and local government web resources and services.